sensor_id;sensor_type;location;lat;lon;timestamp;P1;durP1;ratioP1;P2;durP2;ratioP2
19111;SDS011;9688;51.906;8.376;2023-06-22T00:01:00;7.20;;;5.63;;
19111;SDS011;9688;51.906;8.376;2023-06-22T00:03:46;10.20;;;6.43;;
19111;SDS011;9688;51.906;8.376;2023-06-22T00:06:32;7.03;;;6.00;;
19111;SDS011;9688;51.906;8.376;2023-06-22T00:09:18;5.97;;;5.30;;
19111;SDS011;9688;51.906;8.376;2023-06-22T00:12:04;8.10;;;6.70;;
19111;SDS011;9688;51.906;8.376;2023-06-22T00:14:50;6.40;;;5.60;;
19111;SDS011;9688;51.906;8.376;2023-06-22T00:17:36;6.28;;;5.68;;
19111;SDS011;9688;51.906;8.376;2023-06-22T00:20:21;7.60;;;6.22;;
19111;SDS011;9688;51.906;8.376;2023-06-22T00:23:13;9.63;;;6.90;;
19111;SDS011;9688;51.906;8.376;2023-06-22T00:26:01;8.43;;;6.43;;
19111;SDS011;9688;51.906;8.376;2023-06-22T00:28:47;9.53;;;6.43;;
19111;SDS011;9688;51.906;8.376;2023-06-22T00:31:34;9.90;;;8.02;;
19111;SDS011;9688;51.906;8.376;2023-06-22T00:34:19;10.03;;;7.67;;
19111;SDS011;9688;51.906;8.376;2023-06-22T00:37:05;9.70;;;7.43;;
19111;SDS011;9688;51.906;8.376;2023-06-22T00:39:52;10.02;;;7.20;;
19111;SDS011;9688;51.906;8.376;2023-06-22T00:42:38;11.23;;;7.63;;
19111;SDS011;9688;51.906;8.376;2023-06-22T00:45:24;10.20;;;7.80;;
19111;SDS011;9688;51.906;8.376;2023-06-22T00:48:11;9.43;;;7.57;;
19111;SDS011;9688;51.906;8.376;2023-06-22T00:50:58;10.90;;;7.50;;
19111;SDS011;9688;51.906;8.376;2023-06-22T00:53:44;9.00;;;7.17;;
19111;SDS011;9688;51.906;8.376;2023-06-22T00:56:31;9.23;;;7.13;;
19111;SDS011;9688;51.906;8.376;2023-06-22T00:59:21;7.93;;;6.57;;
19111;SDS011;9688;51.906;8.376;2023-06-22T01:02:06;10.18;;;7.30;;
19111;SDS011;9688;51.906;8.376;2023-06-22T01:04:52;10.27;;;7.53;;
19111;SDS011;9688;51.906;8.376;2023-06-22T01:07:39;14.13;;;7.47;;
19111;SDS011;9688;51.906;8.376;2023-06-22T01:10:35;10.32;;;8.50;;
19111;SDS011;9688;51.906;8.376;2023-06-22T01:13:29;11.70;;;8.30;;
19111;SDS011;9688;51.906;8.376;2023-06-22T01:16:23;15.43;;;9.27;;
19111;SDS011;9688;51.906;8.376;2023-06-22T01:19:18;11.95;;;9.15;;
19111;SDS011;9688;51.906;8.376;2023-06-22T01:22:13;13.23;;;8.53;;
19111;SDS011;9688;51.906;8.376;2023-06-22T01:25:07;11.47;;;8.33;;
19111;SDS011;9688;51.906;8.376;2023-06-22T01:27:56;15.87;;;9.63;;
19111;SDS011;9688;51.906;8.376;2023-06-22T01:30:49;10.67;;;9.00;;
19111;SDS011;9688;51.906;8.376;2023-06-22T01:33:49;12.13;;;9.47;;
19111;SDS011;9688;51.906;8.376;2023-06-22T01:36:37;12.80;;;9.30;;
19111;SDS011;9688;51.906;8.376;2023-06-22T01:39:24;14.70;;;9.40;;
19111;SDS011;9688;51.906;8.376;2023-06-22T01:42:10;14.83;;;10.20;;
19111;SDS011;9688;51.906;8.376;2023-06-22T01:44:57;11.67;;;9.37;;
19111;SDS011;9688;51.906;8.376;2023-06-22T01:47:45;13.67;;;9.87;;
19111;SDS011;9688;51.906;8.376;2023-06-22T01:50:32;12.00;;;9.73;;
19111;SDS011;9688;51.906;8.376;2023-06-22T01:53:18;14.97;;;10.03;;
19111;SDS011;9688;51.906;8.376;2023-06-22T01:56:06;11.73;;;9.97;;
19111;SDS011;9688;51.906;8.376;2023-06-22T01:58:55;11.40;;;9.53;;
19111;SDS011;9688;51.906;8.376;2023-06-22T02:01:54;14.70;;;9.57;;
19111;SDS011;9688;51.906;8.376;2023-06-22T02:04:48;11.57;;;9.73;;
19111;SDS011;9688;51.906;8.376;2023-06-22T02:07:39;14.33;;;10.53;;
19111;SDS011;9688;51.906;8.376;2023-06-22T02:10:29;13.27;;;10.13;;
19111;SDS011;9688;51.906;8.376;2023-06-22T02:16:11;12.27;;;10.33;;
19111;SDS011;9688;51.906;8.376;2023-06-22T02:18:58;16.37;;;11.17;;
19111;SDS011;9688;51.906;8.376;2023-06-22T02:21:48;12.97;;;10.13;;
19111;SDS011;9688;51.906;8.376;2023-06-22T02:24:34;13.23;;;10.60;;
19111;SDS011;9688;51.906;8.376;2023-06-22T02:27:20;12.83;;;10.17;;
19111;SDS011;9688;51.906;8.376;2023-06-22T02:30:06;12.37;;;9.60;;
19111;SDS011;9688;51.906;8.376;2023-06-22T02:32:53;14.47;;;9.83;;
19111;SDS011;9688;51.906;8.376;2023-06-22T02:35:42;12.80;;;9.70;;
19111;SDS011;9688;51.906;8.376;2023-06-22T02:38:33;10.87;;;9.50;;
19111;SDS011;9688;51.906;8.376;2023-06-22T02:41:20;14.00;;;10.03;;
19111;SDS011;9688;51.906;8.376;2023-06-22T02:44:06;14.83;;;10.50;;
19111;SDS011;9688;51.906;8.376;2023-06-22T02:46:51;18.47;;;10.80;;
19111;SDS011;9688;51.906;8.376;2023-06-22T02:49:38;15.27;;;10.43;;
19111;SDS011;9688;51.906;8.376;2023-06-22T02:52:24;17.30;;;10.73;;
19111;SDS011;9688;51.906;8.376;2023-06-22T02:55:11;15.67;;;10.47;;
19111;SDS011;9688;51.906;8.376;2023-06-22T02:57:57;13.70;;;9.83;;
19111;SDS011;9688;51.906;8.376;2023-06-22T03:00:43;17.00;;;11.83;;
19111;SDS011;9688;51.906;8.376;2023-06-22T03:03:29;14.37;;;10.90;;
19111;SDS011;9688;51.906;8.376;2023-06-22T03:06:15;14.60;;;10.87;;
19111;SDS011;9688;51.906;8.376;2023-06-22T03:09:07;13.43;;;11.03;;
19111;SDS011;9688;51.906;8.376;2023-06-22T03:11:55;15.30;;;10.40;;
19111;SDS011;9688;51.906;8.376;2023-06-22T03:14:41;12.90;;;10.23;;
19111;SDS011;9688;51.906;8.376;2023-06-22T03:17:28;13.53;;;11.27;;
19111;SDS011;9688;51.906;8.376;2023-06-22T03:20:16;19.90;;;12.10;;
19111;SDS011;9688;51.906;8.376;2023-06-22T03:23:03;15.95;;;11.07;;
19111;SDS011;9688;51.906;8.376;2023-06-22T03:25:48;16.77;;;11.67;;
19111;SDS011;9688;51.906;8.376;2023-06-22T03:28:35;18.80;;;12.03;;
19111;SDS011;9688;51.906;8.376;2023-06-22T03:31:21;17.17;;;11.87;;
19111;SDS011;9688;51.906;8.376;2023-06-22T03:34:07;17.83;;;12.73;;
19111;SDS011;9688;51.906;8.376;2023-06-22T03:36:53;16.60;;;12.33;;
19111;SDS011;9688;51.906;8.376;2023-06-22T03:39:39;17.37;;;11.87;;
19111;SDS011;9688;51.906;8.376;2023-06-22T03:42:25;17.17;;;12.33;;
19111;SDS011;9688;51.906;8.376;2023-06-22T03:45:14;17.13;;;12.17;;
19111;SDS011;9688;51.906;8.376;2023-06-22T03:48:00;17.20;;;12.20;;
19111;SDS011;9688;51.906;8.376;2023-06-22T03:50:46;18.48;;;12.27;;
19111;SDS011;9688;51.906;8.376;2023-06-22T03:53:32;17.98;;;12.60;;
19111;SDS011;9688;51.906;8.376;2023-06-22T03:56:18;19.70;;;13.17;;
19111;SDS011;9688;51.906;8.376;2023-06-22T03:59:04;24.33;;;13.47;;
19111;SDS011;9688;51.906;8.376;2023-06-22T04:01:51;16.43;;;12.67;;
19111;SDS011;9688;51.906;8.376;2023-06-22T04:04:38;19.43;;;13.43;;
19111;SDS011;9688;51.906;8.376;2023-06-22T04:07:24;17.47;;;13.40;;
19111;SDS011;9688;51.906;8.376;2023-06-22T04:10:10;17.33;;;13.57;;
19111;SDS011;9688;51.906;8.376;2023-06-22T04:12:56;19.83;;;13.13;;
19111;SDS011;9688;51.906;8.376;2023-06-22T04:15:51;17.23;;;13.53;;
19111;SDS011;9688;51.906;8.376;2023-06-22T04:18:39;18.43;;;12.53;;
19111;SDS011;9688;51.906;8.376;2023-06-22T04:21:25;17.57;;;12.73;;
19111;SDS011;9688;51.906;8.376;2023-06-22T04:24:11;16.43;;;12.13;;
19111;SDS011;9688;51.906;8.376;2023-06-22T04:26:57;18.50;;;12.30;;
19111;SDS011;9688;51.906;8.376;2023-06-22T04:29:46;15.40;;;12.00;;
19111;SDS011;9688;51.906;8.376;2023-06-22T04:32:35;19.07;;;12.20;;
19111;SDS011;9688;51.906;8.376;2023-06-22T04:35:22;19.03;;;12.07;;
19111;SDS011;9688;51.906;8.376;2023-06-22T04:38:09;17.13;;;11.85;;
19111;SDS011;9688;51.906;8.376;2023-06-22T04:40:57;16.23;;;12.33;;
19111;SDS011;9688;51.906;8.376;2023-06-22T04:43:45;20.23;;;14.27;;
19111;SDS011;9688;51.906;8.376;2023-06-22T04:46:39;23.93;;;13.10;;
19111;SDS011;9688;51.906;8.376;2023-06-22T04:49:25;23.00;;;12.95;;
19111;SDS011;9688;51.906;8.376;2023-06-22T04:52:18;16.40;;;12.07;;
19111;SDS011;9688;51.906;8.376;2023-06-22T04:55:05;19.00;;;12.65;;
19111;SDS011;9688;51.906;8.376;2023-06-22T04:57:51;20.75;;;13.23;;
19111;SDS011;9688;51.906;8.376;2023-06-22T05:00:37;21.17;;;13.30;;
19111;SDS011;9688;51.906;8.376;2023-06-22T05:03:24;17.63;;;12.83;;
19111;SDS011;9688;51.906;8.376;2023-06-22T05:06:10;19.70;;;12.43;;
19111;SDS011;9688;51.906;8.376;2023-06-22T05:08:59;19.95;;;12.68;;
19111;SDS011;9688;51.906;8.376;2023-06-22T05:11:46;18.00;;;12.30;;
19111;SDS011;9688;51.906;8.376;2023-06-22T05:14:33;17.40;;;12.38;;
19111;SDS011;9688;51.906;8.376;2023-06-22T05:17:19;17.13;;;12.60;;
19111;SDS011;9688;51.906;8.376;2023-06-22T05:20:07;19.13;;;12.25;;
19111;SDS011;9688;51.906;8.376;2023-06-22T05:22:57;19.52;;;12.13;;
19111;SDS011;9688;51.906;8.376;2023-06-22T05:25:46;15.65;;;12.70;;
19111;SDS011;9688;51.906;8.376;2023-06-22T05:28:32;19.40;;;14.00;;
19111;SDS011;9688;51.906;8.376;2023-06-22T05:31:19;19.65;;;12.98;;
19111;SDS011;9688;51.906;8.376;2023-06-22T05:34:06;17.45;;;12.68;;
19111;SDS011;9688;51.906;8.376;2023-06-22T05:36:51;14.80;;;11.75;;
19111;SDS011;9688;51.906;8.376;2023-06-22T05:39:37;16.77;;;12.45;;
19111;SDS011;9688;51.906;8.376;2023-06-22T05:42:26;20.85;;;13.30;;
19111;SDS011;9688;51.906;8.376;2023-06-22T05:45:12;17.30;;;12.73;;
19111;SDS011;9688;51.906;8.376;2023-06-22T05:47:58;16.60;;;12.80;;
19111;SDS011;9688;51.906;8.376;2023-06-22T05:50:44;17.58;;;12.70;;
19111;SDS011;9688;51.906;8.376;2023-06-22T05:53:33;16.30;;;11.68;;
19111;SDS011;9688;51.906;8.376;2023-06-22T05:56:19;18.33;;;12.27;;
19111;SDS011;9688;51.906;8.376;2023-06-22T05:59:07;14.85;;;12.38;;
19111;SDS011;9688;51.906;8.376;2023-06-22T06:01:53;18.05;;;12.55;;
19111;SDS011;9688;51.906;8.376;2023-06-22T06:04:40;16.40;;;12.15;;
19111;SDS011;9688;51.906;8.376;2023-06-22T06:07:25;13.50;;;10.07;;
19111;SDS011;9688;51.906;8.376;2023-06-22T06:10:12;15.23;;;11.10;;
19111;SDS011;9688;51.906;8.376;2023-06-22T06:12:58;15.40;;;10.80;;
19111;SDS011;9688;51.906;8.376;2023-06-22T06:15:51;17.08;;;11.07;;
19111;SDS011;9688;51.906;8.376;2023-06-22T06:18:39;15.43;;;10.65;;
19111;SDS011;9688;51.906;8.376;2023-06-22T06:21:24;13.98;;;10.18;;
19111;SDS011;9688;51.906;8.376;2023-06-22T06:24:11;15.43;;;10.30;;
19111;SDS011;9688;51.906;8.376;2023-06-22T06:26:57;13.48;;;9.85;;
19111;SDS011;9688;51.906;8.376;2023-06-22T06:29:43;15.18;;;9.70;;
19111;SDS011;9688;51.906;8.376;2023-06-22T06:32:38;12.25;;;9.23;;
19111;SDS011;9688;51.906;8.376;2023-06-22T06:35:31;12.05;;;9.38;;
19111;SDS011;9688;51.906;8.376;2023-06-22T06:38:21;11.93;;;9.43;;
19111;SDS011;9688;51.906;8.376;2023-06-22T06:41:08;14.57;;;9.55;;
19111;SDS011;9688;51.906;8.376;2023-06-22T06:43:54;10.52;;;8.45;;
19111;SDS011;9688;51.906;8.376;2023-06-22T06:46:40;13.98;;;8.90;;
19111;SDS011;9688;51.906;8.376;2023-06-22T06:49:28;9.52;;;8.27;;
19111;SDS011;9688;51.906;8.376;2023-06-22T06:52:15;14.10;;;9.25;;
19111;SDS011;9688;51.906;8.376;2023-06-22T06:55:02;10.18;;;8.88;;
19111;SDS011;9688;51.906;8.376;2023-06-22T06:57:53;12.68;;;8.43;;
19111;SDS011;9688;51.906;8.376;2023-06-22T07:00:39;12.25;;;9.15;;
19111;SDS011;9688;51.906;8.376;2023-06-22T07:03:25;11.70;;;9.10;;
19111;SDS011;9688;51.906;8.376;2023-06-22T07:06:13;11.50;;;9.02;;
19111;SDS011;9688;51.906;8.376;2023-06-22T07:09:01;12.70;;;8.85;;
19111;SDS011;9688;51.906;8.376;2023-06-22T07:11:48;13.40;;;9.40;;
19111;SDS011;9688;51.906;8.376;2023-06-22T07:14:36;13.45;;;9.05;;
19111;SDS011;9688;51.906;8.376;2023-06-22T07:17:24;14.93;;;8.98;;
19111;SDS011;9688;51.906;8.376;2023-06-22T07:20:17;11.70;;;9.40;;
19111;SDS011;9688;51.906;8.376;2023-06-22T07:23:22;12.02;;;9.32;;
19111;SDS011;9688;51.906;8.376;2023-06-22T07:26:26;13.85;;;10.35;;
19111;SDS011;9688;51.906;8.376;2023-06-22T07:29:25;13.70;;;10.02;;
19111;SDS011;9688;51.906;8.376;2023-06-22T07:32:18;14.35;;;11.55;;
19111;SDS011;9688;51.906;8.376;2023-06-22T07:35:05;12.88;;;11.20;;
19111;SDS011;9688;51.906;8.376;2023-06-22T07:37:52;16.60;;;11.75;;
19111;SDS011;9688;51.906;8.376;2023-06-22T07:40:39;13.88;;;11.27;;
19111;SDS011;9688;51.906;8.376;2023-06-22T07:43:25;13.70;;;11.90;;
19111;SDS011;9688;51.906;8.376;2023-06-22T07:46:15;14.20;;;11.43;;
19111;SDS011;9688;51.906;8.376;2023-06-22T07:49:01;13.73;;;11.73;;
19111;SDS011;9688;51.906;8.376;2023-06-22T07:51:47;15.95;;;12.40;;
19111;SDS011;9688;51.906;8.376;2023-06-22T07:54:34;16.27;;;12.00;;
19111;SDS011;9688;51.906;8.376;2023-06-22T07:57:21;17.88;;;11.63;;
19111;SDS011;9688;51.906;8.376;2023-06-22T08:00:17;15.52;;;12.52;;
19111;SDS011;9688;51.906;8.376;2023-06-22T08:03:04;14.82;;;12.32;;
19111;SDS011;9688;51.906;8.376;2023-06-22T08:05:50;17.17;;;12.45;;
19111;SDS011;9688;51.906;8.376;2023-06-22T08:08:38;16.33;;;13.32;;
19111;SDS011;9688;51.906;8.376;2023-06-22T08:11:24;18.67;;;12.80;;
19111;SDS011;9688;51.906;8.376;2023-06-22T08:14:12;19.20;;;12.77;;
19111;SDS011;9688;51.906;8.376;2023-06-22T08:17:06;15.75;;;12.45;;
19111;SDS011;9688;51.906;8.376;2023-06-22T08:20:09;15.63;;;12.30;;
19111;SDS011;9688;51.906;8.376;2023-06-22T08:23:22;15.20;;;12.18;;
19111;SDS011;9688;51.906;8.376;2023-06-22T08:26:09;16.67;;;12.80;;
19111;SDS011;9688;51.906;8.376;2023-06-22T08:29:03;18.63;;;11.27;;
19111;SDS011;9688;51.906;8.376;2023-06-22T08:31:57;15.52;;;11.30;;
19111;SDS011;9688;51.906;8.376;2023-06-22T08:34:43;16.30;;;11.30;;
19111;SDS011;9688;51.906;8.376;2023-06-22T08:37:33;15.05;;;10.30;;
19111;SDS011;9688;51.906;8.376;2023-06-22T08:40:19;14.95;;;10.70;;
19111;SDS011;9688;51.906;8.376;2023-06-22T08:43:07;11.10;;;10.00;;
19111;SDS011;9688;51.906;8.376;2023-06-22T08:45:56;11.98;;;9.10;;
19111;SDS011;9688;51.906;8.376;2023-06-22T08:48:44;12.52;;;9.25;;
19111;SDS011;9688;51.906;8.376;2023-06-22T08:51:30;11.85;;;8.13;;
19111;SDS011;9688;51.906;8.376;2023-06-22T08:54:16;8.15;;;7.25;;
19111;SDS011;9688;51.906;8.376;2023-06-22T08:57:03;8.85;;;7.43;;
19111;SDS011;9688;51.906;8.376;2023-06-22T08:59:59;9.70;;;7.13;;
19111;SDS011;9688;51.906;8.376;2023-06-22T09:02:48;7.57;;;6.78;;
19111;SDS011;9688;51.906;8.376;2023-06-22T09:05:37;7.05;;;6.03;;
19111;SDS011;9688;51.906;8.376;2023-06-22T09:08:23;7.95;;;6.70;;
19111;SDS011;9688;51.906;8.376;2023-06-22T09:11:09;8.30;;;7.50;;
19111;SDS011;9688;51.906;8.376;2023-06-22T09:13:55;7.60;;;6.85;;
19111;SDS011;9688;51.906;8.376;2023-06-22T09:16:43;9.45;;;7.25;;
19111;SDS011;9688;51.906;8.376;2023-06-22T09:19:31;7.63;;;6.82;;
19111;SDS011;9688;51.906;8.376;2023-06-22T09:22:37;9.43;;;6.97;;
19111;SDS011;9688;51.906;8.376;2023-06-22T09:25:27;8.05;;;6.78;;
19111;SDS011;9688;51.906;8.376;2023-06-22T09:28:18;8.55;;;7.13;;
19111;SDS011;9688;51.906;8.376;2023-06-22T09:31:05;10.00;;;7.78;;
19111;SDS011;9688;51.906;8.376;2023-06-22T09:33:52;8.82;;;7.55;;
19111;SDS011;9688;51.906;8.376;2023-06-22T09:36:42;8.93;;;8.02;;
19111;SDS011;9688;51.906;8.376;2023-06-22T09:39:34;8.63;;;7.72;;
19111;SDS011;9688;51.906;8.376;2023-06-22T09:42:24;9.05;;;7.57;;
19111;SDS011;9688;51.906;8.376;2023-06-22T09:45:19;7.60;;;6.90;;
19111;SDS011;9688;51.906;8.376;2023-06-22T09:48:09;8.02;;;7.10;;
19111;SDS011;9688;51.906;8.376;2023-06-22T09:50:56;9.43;;;6.70;;
19111;SDS011;9688;51.906;8.376;2023-06-22T09:53:42;7.45;;;6.68;;
19111;SDS011;9688;51.906;8.376;2023-06-22T09:56:29;9.95;;;7.00;;
19111;SDS011;9688;51.906;8.376;2023-06-22T09:59:16;9.48;;;7.65;;
19111;SDS011;9688;51.906;8.376;2023-06-22T10:02:05;9.75;;;7.95;;
19111;SDS011;9688;51.906;8.376;2023-06-22T10:05:02;9.73;;;7.30;;
19111;SDS011;9688;51.906;8.376;2023-06-22T10:07:53;7.90;;;6.57;;
19111;SDS011;9688;51.906;8.376;2023-06-22T10:10:40;7.45;;;6.65;;
19111;SDS011;9688;51.906;8.376;2023-06-22T10:13:27;8.98;;;8.07;;
19111;SDS011;9688;51.906;8.376;2023-06-22T10:16:14;7.90;;;7.18;;
19111;SDS011;9688;51.906;8.376;2023-06-22T10:19:00;8.43;;;7.55;;
19111;SDS011;9688;51.906;8.376;2023-06-22T10:21:48;11.70;;;9.15;;
19111;SDS011;9688;51.906;8.376;2023-06-22T10:24:35;11.98;;;9.18;;
19111;SDS011;9688;51.906;8.376;2023-06-22T10:27:23;11.02;;;9.48;;
19111;SDS011;9688;51.906;8.376;2023-06-22T10:30:13;13.20;;;9.65;;
19111;SDS011;9688;51.906;8.376;2023-06-22T10:33:01;11.98;;;8.45;;
19111;SDS011;9688;51.906;8.376;2023-06-22T10:35:47;10.23;;;7.93;;
19111;SDS011;9688;51.906;8.376;2023-06-22T10:39:03;11.95;;;7.78;;
19111;SDS011;9688;51.906;8.376;2023-06-22T10:41:50;8.93;;;8.00;;
19111;SDS011;9688;51.906;8.376;2023-06-22T10:44:36;8.30;;;7.00;;
19111;SDS011;9688;51.906;8.376;2023-06-22T10:47:25;7.68;;;6.88;;
19111;SDS011;9688;51.906;8.376;2023-06-22T10:50:17;9.65;;;7.13;;
19111;SDS011;9688;51.906;8.376;2023-06-22T10:56:14;9.70;;;7.03;;
19111;SDS011;9688;51.906;8.376;2023-06-22T10:59:02;8.15;;;6.80;;
19111;SDS011;9688;51.906;8.376;2023-06-22T11:01:48;9.70;;;7.35;;
19111;SDS011;9688;51.906;8.376;2023-06-22T11:04:35;8.15;;;7.43;;
19111;SDS011;9688;51.906;8.376;2023-06-22T11:07:21;8.07;;;7.28;;
19111;SDS011;9688;51.906;8.376;2023-06-22T11:10:08;8.80;;;6.95;;
19111;SDS011;9688;51.906;8.376;2023-06-22T11:12:54;12.50;;;7.90;;
19111;SDS011;9688;51.906;8.376;2023-06-22T11:15:51;7.93;;;7.13;;
19111;SDS011;9688;51.906;8.376;2023-06-22T11:18:40;8.05;;;7.25;;
19111;SDS011;9688;51.906;8.376;2023-06-22T11:21:27;11.82;;;7.78;;
19111;SDS011;9688;51.906;8.376;2023-06-22T11:24:13;10.07;;;7.55;;
19111;SDS011;9688;51.906;8.376;2023-06-22T11:27:00;10.10;;;7.80;;
19111;SDS011;9688;51.906;8.376;2023-06-22T11:29:59;8.90;;;7.88;;
19111;SDS011;9688;51.906;8.376;2023-06-22T11:32:58;8.40;;;7.60;;
19111;SDS011;9688;51.906;8.376;2023-06-22T11:35:51;8.10;;;6.82;;
19111;SDS011;9688;51.906;8.376;2023-06-22T11:39:00;7.55;;;6.82;;
19111;SDS011;9688;51.906;8.376;2023-06-22T11:41:45;10.05;;;6.65;;
19111;SDS011;9688;51.906;8.376;2023-06-22T11:44:33;9.63;;;7.80;;
19111;SDS011;9688;51.906;8.376;2023-06-22T11:47:23;9.43;;;7.75;;
19111;SDS011;9688;51.906;8.376;2023-06-22T11:50:15;8.75;;;7.80;;
19111;SDS011;9688;51.906;8.376;2023-06-22T11:53:01;11.57;;;7.65;;
19111;SDS011;9688;51.906;8.376;2023-06-22T11:55:48;10.73;;;7.82;;
19111;SDS011;9688;51.906;8.376;2023-06-22T11:58:38;9.70;;;8.25;;
19111;SDS011;9688;51.906;8.376;2023-06-22T12:01:30;8.82;;;8.00;;
19111;SDS011;9688;51.906;8.376;2023-06-22T12:04:18;10.68;;;8.20;;
19111;SDS011;9688;51.906;8.376;2023-06-22T12:07:06;10.98;;;8.70;;
19111;SDS011;9688;51.906;8.376;2023-06-22T12:09:55;9.40;;;8.30;;
19111;SDS011;9688;51.906;8.376;2023-06-22T12:12:44;12.30;;;8.18;;
19111;SDS011;9688;51.906;8.376;2023-06-22T12:15:32;10.65;;;7.95;;
19111;SDS011;9688;51.906;8.376;2023-06-22T12:18:18;10.73;;;8.07;;
19111;SDS011;9688;51.906;8.376;2023-06-22T12:21:05;9.55;;;8.00;;
19111;SDS011;9688;51.906;8.376;2023-06-22T12:23:56;9.38;;;8.32;;
19111;SDS011;9688;51.906;8.376;2023-06-22T12:26:45;10.98;;;8.30;;
19111;SDS011;9688;51.906;8.376;2023-06-22T12:29:34;8.85;;;7.95;;
19111;SDS011;9688;51.906;8.376;2023-06-22T12:32:21;9.00;;;8.10;;
19111;SDS011;9688;51.906;8.376;2023-06-22T12:35:07;10.50;;;8.32;;
19111;SDS011;9688;51.906;8.376;2023-06-22T12:37:58;11.75;;;8.63;;
19111;SDS011;9688;51.906;8.376;2023-06-22T12:40:46;10.10;;;9.05;;
19111;SDS011;9688;51.906;8.376;2023-06-22T12:43:34;10.40;;;8.77;;
19111;SDS011;9688;51.906;8.376;2023-06-22T12:46:22;9.57;;;8.57;;
19111;SDS011;9688;51.906;8.376;2023-06-22T12:49:08;9.57;;;7.97;;
19111;SDS011;9688;51.906;8.376;2023-06-22T12:51:54;9.63;;;8.60;;
19111;SDS011;9688;51.906;8.376;2023-06-22T12:54:42;12.73;;;9.32;;
19111;SDS011;9688;51.906;8.376;2023-06-22T12:57:29;12.30;;;8.88;;
19111;SDS011;9688;51.906;8.376;2023-06-22T13:00:16;17.48;;;9.82;;
19111;SDS011;9688;51.906;8.376;2023-06-22T13:03:07;13.30;;;10.35;;
19111;SDS011;9688;51.906;8.376;2023-06-22T13:05:55;16.45;;;11.68;;
19111;SDS011;9688;51.906;8.376;2023-06-22T13:08:46;14.85;;;11.70;;
19111;SDS011;9688;51.906;8.376;2023-06-22T13:11:34;13.65;;;11.82;;
19111;SDS011;9688;51.906;8.376;2023-06-22T13:14:20;13.93;;;11.55;;
19111;SDS011;9688;51.906;8.376;2023-06-22T13:17:06;16.88;;;12.63;;
19111;SDS011;9688;51.906;8.376;2023-06-22T13:19:56;22.15;;;14.50;;
19111;SDS011;9688;51.906;8.376;2023-06-22T13:22:56;19.75;;;16.35;;
19111;SDS011;9688;51.906;8.376;2023-06-22T13:25:43;20.55;;;16.35;;
19111;SDS011;9688;51.906;8.376;2023-06-22T13:28:29;22.52;;;17.05;;
19111;SDS011;9688;51.906;8.376;2023-06-22T13:31:18;28.63;;;18.48;;
19111;SDS011;9688;51.906;8.376;2023-06-22T13:34:11;32.30;;;20.70;;
19111;SDS011;9688;51.906;8.376;2023-06-22T13:37:00;40.55;;;24.90;;
19111;SDS011;9688;51.906;8.376;2023-06-22T13:39:46;38.10;;;25.38;;
19111;SDS011;9688;51.906;8.376;2023-06-22T13:42:32;47.75;;;30.02;;
19111;SDS011;9688;51.906;8.376;2023-06-22T13:45:18;43.47;;;29.55;;
19111;SDS011;9688;51.906;8.376;2023-06-22T13:48:05;44.63;;;30.17;;
19111;SDS011;9688;51.906;8.376;2023-06-22T13:50:51;46.08;;;30.73;;
19111;SDS011;9688;51.906;8.376;2023-06-22T13:53:39;53.95;;;32.60;;
19111;SDS011;9688;51.906;8.376;2023-06-22T13:56:25;64.43;;;36.05;;
19111;SDS011;9688;51.906;8.376;2023-06-22T13:59:11;90.45;;;42.28;;
19111;SDS011;9688;51.906;8.376;2023-06-22T14:01:57;77.65;;;40.45;;
19111;SDS011;9688;51.906;8.376;2023-06-22T14:04:43;86.00;;;44.28;;
19111;SDS011;9688;51.906;8.376;2023-06-22T14:07:29;63.67;;;37.50;;
19111;SDS011;9688;51.906;8.376;2023-06-22T14:10:17;43.97;;;30.08;;
19111;SDS011;9688;51.906;8.376;2023-06-22T14:13:03;47.23;;;30.57;;
19111;SDS011;9688;51.906;8.376;2023-06-22T14:15:50;42.73;;;29.83;;
19111;SDS011;9688;51.906;8.376;2023-06-22T14:18:38;45.17;;;29.73;;
19111;SDS011;9688;51.906;8.376;2023-06-22T14:21:23;38.07;;;25.53;;
19111;SDS011;9688;51.906;8.376;2023-06-22T14:24:10;30.27;;;22.10;;
19111;SDS011;9688;51.906;8.376;2023-06-22T14:26:58;33.37;;;23.07;;
19111;SDS011;9688;51.906;8.376;2023-06-22T14:29:46;43.97;;;28.50;;
19111;SDS011;9688;51.906;8.376;2023-06-22T14:32:31;43.23;;;28.27;;
19111;SDS011;9688;51.906;8.376;2023-06-22T14:35:19;44.40;;;28.67;;
19111;SDS011;9688;51.906;8.376;2023-06-22T14:38:14;49.25;;;30.65;;
19111;SDS011;9688;51.906;8.376;2023-06-22T14:41:00;67.93;;;38.33;;
19111;SDS011;9688;51.906;8.376;2023-06-22T14:43:47;55.90;;;33.72;;
19111;SDS011;9688;51.906;8.376;2023-06-22T14:46:34;47.03;;;30.63;;
19111;SDS011;9688;51.906;8.376;2023-06-22T14:49:20;45.63;;;30.50;;
19111;SDS011;9688;51.906;8.376;2023-06-22T14:52:06;42.50;;;27.93;;
19111;SDS011;9688;51.906;8.376;2023-06-22T14:54:52;35.93;;;25.40;;
19111;SDS011;9688;51.906;8.376;2023-06-22T14:57:39;37.67;;;25.70;;
19111;SDS011;9688;51.906;8.376;2023-06-22T15:00:26;33.53;;;23.97;;
19111;SDS011;9688;51.906;8.376;2023-06-22T15:03:12;27.27;;;21.05;;
19111;SDS011;9688;51.906;8.376;2023-06-22T15:06:01;27.52;;;19.65;;
19111;SDS011;9688;51.906;8.376;2023-06-22T15:08:48;27.95;;;21.15;;
19111;SDS011;9688;51.906;8.376;2023-06-22T15:11:33;26.80;;;18.60;;
19111;SDS011;9688;51.906;8.376;2023-06-22T15:14:20;23.48;;;17.05;;
19111;SDS011;9688;51.906;8.376;2023-06-22T15:17:09;22.63;;;15.38;;
19111;SDS011;9688;51.906;8.376;2023-06-22T15:19:58;18.05;;;14.63;;
19111;SDS011;9688;51.906;8.376;2023-06-22T15:22:48;19.92;;;15.45;;
19111;SDS011;9688;51.906;8.376;2023-06-22T15:25:34;16.20;;;13.85;;
19111;SDS011;9688;51.906;8.376;2023-06-22T15:28:21;18.77;;;13.98;;
19111;SDS011;9688;51.906;8.376;2023-06-22T15:31:11;17.73;;;13.15;;
19111;SDS011;9688;51.906;8.376;2023-06-22T15:33:59;18.63;;;14.70;;
19111;SDS011;9688;51.906;8.376;2023-06-22T15:36:54;17.30;;;14.00;;
19111;SDS011;9688;51.906;8.376;2023-06-22T15:40:06;18.60;;;14.57;;
19111;SDS011;9688;51.906;8.376;2023-06-22T15:42:52;19.70;;;14.57;;
19111;SDS011;9688;51.906;8.376;2023-06-22T15:45:39;17.98;;;14.55;;
19111;SDS011;9688;51.906;8.376;2023-06-22T15:48:26;18.13;;;14.55;;
19111;SDS011;9688;51.906;8.376;2023-06-22T15:51:15;16.52;;;13.80;;
19111;SDS011;9688;51.906;8.376;2023-06-22T15:54:01;18.38;;;13.68;;
19111;SDS011;9688;51.906;8.376;2023-06-22T15:56:51;18.02;;;14.38;;
19111;SDS011;9688;51.906;8.376;2023-06-22T15:59:37;18.77;;;13.77;;
19111;SDS011;9688;51.906;8.376;2023-06-22T16:02:23;21.90;;;15.10;;
19111;SDS011;9688;51.906;8.376;2023-06-22T16:05:11;20.33;;;14.30;;
19111;SDS011;9688;51.906;8.376;2023-06-22T16:07:58;19.85;;;14.10;;
19111;SDS011;9688;51.906;8.376;2023-06-22T16:10:54;17.42;;;14.30;;
19111;SDS011;9688;51.906;8.376;2023-06-22T16:13:39;19.05;;;14.65;;
19111;SDS011;9688;51.906;8.376;2023-06-22T16:16:26;17.33;;;14.63;;
19111;SDS011;9688;51.906;8.376;2023-06-22T16:19:12;20.67;;;15.48;;
19111;SDS011;9688;51.906;8.376;2023-06-22T16:21:58;23.50;;;15.70;;
19111;SDS011;9688;51.906;8.376;2023-06-22T16:24:44;20.65;;;15.02;;
19111;SDS011;9688;51.906;8.376;2023-06-22T16:27:31;20.98;;;15.57;;
19111;SDS011;9688;51.906;8.376;2023-06-22T16:30:17;23.80;;;16.42;;
19111;SDS011;9688;51.906;8.376;2023-06-22T16:33:02;21.10;;;15.88;;
19111;SDS011;9688;51.906;8.376;2023-06-22T16:35:54;22.08;;;16.33;;
19111;SDS011;9688;51.906;8.376;2023-06-22T16:39:11;22.02;;;16.48;;
19111;SDS011;9688;51.906;8.376;2023-06-22T16:41:59;25.33;;;17.88;;
19111;SDS011;9688;51.906;8.376;2023-06-22T16:44:46;23.25;;;17.55;;
19111;SDS011;9688;51.906;8.376;2023-06-22T16:47:32;35.95;;;20.33;;
19111;SDS011;9688;51.906;8.376;2023-06-22T16:50:18;39.15;;;25.10;;
19111;SDS011;9688;51.906;8.376;2023-06-22T16:53:05;39.85;;;25.30;;
19111;SDS011;9688;51.906;8.376;2023-06-22T16:55:50;64.78;;;34.13;;